Time;durP1;ratioP1;P1;durP2;ratioP2;P2;SDS_P1;SDS_P2;PMS_P1;PMS_P2;Temp;Humidity;BMP_temperature;BMP_pressure;BME280_temperature;BME280_humidity;BME280_pressure;Samples;Min_cycle;Max_cycle;Signal;HPM_P1;HPM_P2
2023/10/19 00:00:51;;;;;;;0.98;0.95;;;;;;;12.05;50.11;99449.03;4474187;32;33340;-80
2023/10/19 00:03:19;;;;;;;0.98;0.98;;;;;;;12.17;49.83;99441.38;4450657;32;32702;-79
2023/10/19 00:05:48;;;;;;;1.23;1.12;;;;;;;12.31;49.64;99438.81;4475819;32;33878;-80
2023/10/19 00:10:53;;;;;;;2.20;1.40;;;;;;;12.21;49.89;99437.63;4472089;32;33112;-81
2023/10/19 00:13:22;;;;;;;2.12;1.15;;;;;;;12.30;49.60;99431.81;4459672;32;32890;-80
2023/10/19 00:15:54;;;;;;;1.60;1.50;;;;;;;12.10;49.97;99421.47;4472522;32;32085;-80
2023/10/19 00:18:23;;;;;;;3.03;1.62;;;;;;;11.88;51.90;99422.69;4475556;32;33760;-81
2023/10/19 00:21:11;;;;;;;0.93;0.93;;;;;;;11.92;51.56;99421.56;4462352;32;34879;-80
2023/10/19 00:23:39;;;;;;;4.40;1.80;;;;;;;11.99;51.12;99415.00;4464755;32;33884;-81
2023/10/19 00:26:15;;;;;;;0.93;0.93;;;;;;;11.68;51.82;99412.28;4474305;32;33807;-81
2023/10/19 00:28:46;;;;;;;0.73;0.73;;;;;;;11.75;52.04;99408.38;4473949;32;33986;-80
2023/10/19 00:31:15;;;;;;;3.75;1.48;;;;;;;11.68;52.21;99407.00;4462088;32;33038;-81
2023/10/19 00:33:43;;;;;;;1.30;1.10;;;;;;;11.67;52.58;99400.00;4461980;32;32411;-79
2023/10/19 00:36:13;;;;;;;2.20;1.17;;;;;;;11.72;52.54;99400.59;4476900;32;34493;-80
2023/10/19 00:38:52;;;;;;;0.95;0.75;;;;;;;11.88;52.21;99404.16;4461615;32;33683;-80
2023/10/19 00:41:29;;;;;;;1.48;0.57;;;;;;;11.90;52.03;99396.97;4466441;32;34055;-80
2023/10/19 00:44:11;;;;;;;4.87;1.98;;;;;;;11.81;52.41;99400.09;4465207;32;32358;-80
2023/10/19 00:46:43;;;;;;;2.85;0.80;;;;;;;12.07;51.72;99388.12;4476187;32;32942;-79
2023/10/19 00:49:14;;;;;;;3.17;1.73;;;;;;;12.27;51.21;99384.34;4472454;32;33968;-80
2023/10/19 00:52:10;;;;;;;1.17;1.08;;;;;;;11.73;52.84;99383.81;4461997;32;33750;-81
2023/10/19 00:54:55;;;;;;;2.15;1.95;;;;;;;11.51;53.88;99384.97;4459926;32;33577;-81
2023/10/19 00:57:33;;;;;;;6.10;1.40;;;;;;;11.71;53.26;99383.87;4474733;32;33856;-80
2023/10/19 01:00:21;;;;;;;1.55;0.65;;;;;;;11.94;52.68;99372.06;4468958;32;33207;-80
2023/10/19 01:02:51;;;;;;;4.62;2.90;;;;;;;11.72;53.84;99382.09;4479079;32;33913;-81
2023/10/19 01:05:22;;;;;;;0.75;0.68;;;;;;;11.66;55.27;99377.16;4475871;32;34327;-81
2023/10/19 01:07:57;;;;;;;1.52;1.42;;;;;;;11.85;55.70;99369.06;4474615;32;33835;-80
2023/10/19 01:10:28;;;;;;;1.87;0.95;;;;;;;12.05;55.26;99359.06;4461142;32;34908;-79
2023/10/19 01:12:59;;;;;;;1.77;1.27;;;;;;;11.89;56.48;99366.19;4473071;32;32943;-80
2023/10/19 01:17:57;;;;;;;2.85;1.52;;;;;;;11.88;57.88;99363.63;4461649;32;33146;-81
2023/10/19 01:23:19;;;;;;;4.25;2.83;;;;;;;12.00;58.14;99365.56;4473565;32;34870;-81
2023/10/19 01:28:47;;;;;;;6.20;3.00;;;;;;;11.96;59.25;99364.91;4475103;32;33513;-81
2023/10/19 01:34:06;;;;;;;1.23;1.10;;;;;;;12.03;58.40;99333.66;4474973;32;34130;-80
2023/10/19 01:36:42;;;;;;;1.95;1.85;;;;;;;11.84;59.64;99331.19;4464219;32;33658;-80
2023/10/19 01:39:11;;;;;;;1.23;1.23;;;;;;;11.83;60.36;99334.78;4475859;32;33943;-80
2023/10/19 01:41:41;;;;;;;2.37;1.87;;;;;;;11.48;62.23;99331.41;4462370;32;34333;-80
2023/10/19 01:44:13;;;;;;;3.62;2.53;;;;;;;11.74;61.58;99322.03;4462978;32;33941;-80
2023/10/19 01:46:45;;;;;;;1.17;1.08;;;;;;;11.41;63.11;99322.13;4464434;32;32570;-81
2023/10/19 01:49:13;;;;;;;5.80;2.10;;;;;;;11.35;64.07;99319.81;4450108;32;32694;-80
2023/10/19 01:51:44;;;;;;;3.37;1.87;;;;;;;11.77;62.16;99311.28;4470016;32;33601;-80
2023/10/19 01:54:11;;;;;;;1.60;1.50;;;;;;;11.64;62.88;99320.84;4473285;32;34861;-80
2023/10/19 01:56:42;;;;;;;0.62;0.62;;;;;;;11.57;63.15;99311.53;4463259;32;32372;-81
2023/10/19 01:59:10;;;;;;;1.37;1.27;;;;;;;11.67;62.70;99315.37;4474410;32;33807;-81
2023/10/19 02:01:41;;;;;;;4.12;2.05;;;;;;;11.54;63.46;99310.78;4475492;32;34354;-80
2023/10/19 02:04:09;;;;;;;1.58;1.48;;;;;;;11.47;63.66;99304.12;4473360;32;34211;-81
2023/10/19 02:06:38;;;;;;;2.25;2.08;;;;;;;11.46;63.51;99298.94;4476443;32;33300;-81
2023/10/19 02:09:09;;;;;;;0.90;0.90;;;;;;;11.47;64.12;99293.53;4458619;32;31973;-81
2023/10/19 02:11:45;;;;;;;1.60;1.48;;;;;;;11.59;63.34;99292.03;4472771;32;34411;-79
2023/10/19 02:14:15;;;;;;;4.60;2.47;;;;;;;11.19;64.61;99288.06;4453975;32;33092;-78
2023/10/19 02:16:46;;;;;;;1.37;1.27;;;;;;;11.45;63.60;99290.16;4460399;32;32550;-80
2023/10/19 02:19:14;;;;;;;2.65;2.42;;;;;;;11.23;64.33;99289.59;4461400;32;32731;-80
2023/10/19 02:21:43;;;;;;;2.47;1.75;;;;;;;10.98;66.22;99283.00;4461224;32;33683;-81
2023/10/19 02:24:16;;;;;;;1.35;1.25;;;;;;;11.07;65.35;99283.47;4475710;32;33763;-81
2023/10/19 02:26:46;;;;;;;5.78;2.90;;;;;;;11.49;63.80;99273.19;4462443;32;33522;-81
2023/10/19 02:29:15;;;;;;;1.42;1.33;;;;;;;11.32;64.37;99278.53;4475392;32;33552;-81
2023/10/19 02:31:43;;;;;;;3.20;2.83;;;;;;;11.06;65.68;99272.00;4462984;32;32849;-80
2023/10/19 02:34:14;;;;;;;2.00;1.90;;;;;;;10.97;65.85;99273.38;4460948;32;34703;-80
2023/10/19 02:36:44;;;;;;;1.20;1.10;;;;;;;11.09;65.58;99261.28;4470235;32;33403;-80
2023/10/19 02:39:20;;;;;;;8.20;3.83;;;;;;;11.16;65.83;99261.81;4470440;32;34643;-81
2023/10/19 02:41:48;;;;;;;1.77;1.08;;;;;;;11.01;66.22;99253.78;4464621;32;33975;-81
2023/10/19 02:46:50;;;;;;;13.62;3.78;;;;;;;10.66;68.31;99249.53;4476828;32;33348;-81
2023/10/19 02:49:20;;;;;;;6.35;3.08;;;;;;;10.81;67.27;99251.34;4453307;32;32604;-81
2023/10/19 02:51:49;;;;;;;2.78;2.58;;;;;;;10.82;66.98;99242.50;4461618;32;32952;-80
2023/10/19 02:54:24;;;;;;;1.60;1.50;;;;;;;10.82;67.39;99241.63;4473911;32;34054;-80
2023/10/19 02:56:54;;;;;;;2.78;2.22;;;;;;;10.92;67.10;99240.19;4449049;32;32735;-80
2023/10/19 02:59:23;;;;;;;8.77;1.70;;;;;;;10.87;67.35;99229.91;4450101;32;32576;-80
2023/10/19 03:02:00;;;;;;;2.70;2.25;;;;;;;10.82;67.86;99237.22;4459779;32;34741;-81
2023/10/19 03:04:29;;;;;;;3.58;3.05;;;;;;;10.82;68.38;99236.34;4460864;32;33872;-80
2023/10/19 03:06:57;;;;;;;2.10;2.00;;;;;;;11.25;66.29;99232.22;4463772;32;32539;-81
2023/10/19 03:11:59;;;;;;;1.85;1.75;;;;;;;11.03;67.42;99217.56;4471491;32;33469;-81
2023/10/19 03:14:27;;;;;;;5.68;3.22;;;;;;;10.93;67.63;99219.00;4462165;32;33862;-80
2023/10/19 03:16:57;;;;;;;1.30;1.23;;;;;;;10.76;68.57;99216.41;4460120;32;34276;-80
2023/10/19 03:19:25;;;;;;;2.70;2.50;;;;;;;10.55;69.49;99207.87;4477035;32;33559;-80
2023/10/19 03:21:55;;;;;;;2.95;2.75;;;;;;;10.81;68.80;99200.31;4458734;32;32317;-80
2023/10/19 03:24:35;;;;;;;3.05;2.75;;;;;;;10.63;69.17;99195.09;4476209;32;34128;-80
2023/10/19 03:27:13;;;;;;;6.10;4.60;;;;;;;10.58;69.37;99186.56;4461763;32;33679;-80
2023/10/19 03:29:46;;;;;;;1.73;1.62;;;;;;;10.36;70.37;99188.66;4451448;32;32502;-79
2023/10/19 03:32:17;;;;;;;3.00;2.78;;;;;;;10.58;68.71;99193.63;4461536;32;33763;-80
2023/10/19 03:34:47;;;;;;;2.00;1.90;;;;;;;10.37;70.25;99183.28;4459538;32;34171;-80
2023/10/19 03:37:17;;;;;;;3.78;3.42;;;;;;;10.48;69.72;99175.66;4462605;32;33959;-79
2023/10/19 03:39:45;;;;;;;9.57;3.20;;;;;;;10.03;71.78;99168.34;4473347;32;33507;-79
2023/10/19 03:42:14;;;;;;;4.90;3.17;;;;;;;10.15;71.49;99170.31;4475253;32;33933;-79
2023/10/19 03:44:53;;;;;;;3.58;3.22;;;;;;;10.47;69.58;99176.59;4472687;32;34443;-80
2023/10/19 03:47:25;;;;;;;4.57;3.00;;;;;;;10.07;70.75;99169.03;4474819;32;34416;-80
2023/10/19 03:49:53;;;;;;;2.75;2.55;;;;;;;10.33;69.83;99173.81;4473777;32;32870;-81
2023/10/19 03:52:21;;;;;;;2.28;2.17;;;;;;;10.46;69.57;99169.59;4461633;32;34130;-81
2023/10/19 03:54:49;;;;;;;3.92;3.25;;;;;;;10.29;70.86;99169.63;4474793;32;34082;-80
2023/10/19 03:57:30;;;;;;;3.55;3.05;;;;;;;10.46;69.81;99166.97;4475030;32;32860;-81
2023/10/19 03:59:59;;;;;;;5.17;1.97;;;;;;;10.28;70.52;99161.81;4475273;32;33969;-82
2023/10/19 04:02:29;;;;;;;3.00;2.85;;;;;;;10.33;70.67;99160.63;4476798;32;32636;-82
2023/10/19 04:04:58;;;;;;;2.62;2.33;;;;;;;10.70;69.29;99153.38;4463921;32;34763;-82
2023/10/19 04:07:26;;;;;;;2.92;2.58;;;;;;;10.13;71.35;99139.69;4463186;32;32517;-81
2023/10/19 04:12:37;;;;;;;21.87;2.50;;;;;;;10.88;68.42;99136.53;4465861;32;32276;-81
2023/10/19 04:15:16;;;;;;;9.10;4.28;;;;;;;10.30;69.81;99134.41;4475479;32;33828;-80
2023/10/19 04:17:46;;;;;;;2.00;1.77;;;;;;;10.39;70.33;99128.62;4465140;32;34371;-81
2023/10/19 04:22:49;;;;;;;2.10;1.98;;;;;;;10.21;70.98;99116.41;4475120;32;33194;-80
2023/10/19 04:25:29;;;;;;;1.17;1.12;;;;;;;10.52;69.92;99120.91;4478150;32;33876;-81
2023/10/19 04:27:57;;;;;;;4.30;3.90;;;;;;;10.23;71.01;99111.88;4464984;32;32724;-80
2023/10/19 04:30:25;;;;;;;1.73;1.65;;;;;;;10.48;69.89;99096.47;4462245;32;33622;-79
2023/10/19 04:32:57;;;;;;;4.68;4.12;;;;;;;10.36;70.98;99104.22;4463723;32;33927;-80
2023/10/19 04:35:29;;;;;;;2.00;1.80;;;;;;;9.90;72.98;99106.59;4457300;32;32986;-80
2023/10/19 04:37:57;;;;;;;;;;;;;;;10.30;71.15;99102.72;4459923;32;32389;-80
2023/10/19 04:40:26;;;;;;;2.72;2.53;;;;;;;10.48;70.20;99104.38;4450562;32;34023;-81
2023/10/19 04:42:57;;;;;;;4.60;3.37;;;;;;;10.69;69.70;99083.88;4461616;32;31629;-81
2023/10/19 04:45:25;;;;;;;2.70;2.50;;;;;;;9.71;73.13;99090.88;4470085;32;32262;-80
2023/10/19 04:47:54;;;;;;;2.75;2.55;;;;;;;9.88;71.83;99095.28;4473752;32;31690;-81
2023/10/19 04:50:23;;;;;;;3.35;3.10;;;;;;;10.10;71.70;99080.03;4459452;32;34463;-79
2023/10/19 04:52:51;;;;;;;4.75;4.45;;;;;;;10.05;71.92;99083.84;4459165;32;33846;-80
2023/10/19 04:55:18;;;;;;;1.90;1.80;;;;;;;10.38;71.48;99068.03;4471749;32;32975;-79
2023/10/19 04:57:46;;;;;;;1.45;1.15;;;;;;;10.26;71.49;99085.38;4472083;32;32465;-80
2023/10/19 05:00:15;;;;;;;1.37;1.27;;;;;;;9.86;73.06;99091.88;4458223;32;34656;-80
2023/10/19 05:02:42;;;;;;;1.50;1.50;;;;;;;10.09;72.60;99093.31;4450253;32;32464;-81
2023/10/19 05:05:10;;;;;;;3.25;3.05;;;;;;;10.26;72.13;99088.03;4458873;32;34018;-80
2023/10/19 05:07:38;;;;;;;4.78;2.28;;;;;;;10.57;70.73;99079.28;4473045;32;32051;-80
2023/10/19 05:10:07;;;;;;;3.40;3.05;;;;;;;10.01;72.59;99076.09;4471928;32;33716;-81
2023/10/19 05:12:34;;;;;;;2.78;1.90;;;;;;;10.13;72.47;99069.31;4470469;32;34657;-80
2023/10/19 05:15:02;;;;;;;4.55;4.07;;;;;;;10.04;72.94;99069.81;4460196;32;34230;-80
2023/10/19 05:17:30;;;;;;;3.05;2.47;;;;;;;10.10;72.81;99079.16;4465572;32;33855;-80
2023/10/19 05:19:58;;;;;;;2.20;2.10;;;;;;;10.29;72.18;99073.78;4461841;32;32755;-80
2023/10/19 05:22:29;;;;;;;5.70;2.83;;;;;;;10.22;72.21;99086.44;4470951;32;34085;-80
2023/10/19 05:24:57;;;;;;;1.45;1.12;;;;;;;10.29;72.56;99082.56;4469826;32;33960;-80
2023/10/19 05:27:25;;;;;;;3.45;3.00;;;;;;;10.38;71.06;99081.22;4473776;32;32900;-81
2023/10/19 05:29:52;;;;;;;5.00;3.50;;;;;;;10.69;70.91;99085.69;4474120;32;33083;-80
2023/10/19 05:32:20;;;;;;;3.05;2.78;;;;;;;10.31;72.56;99082.50;4471641;32;32931;-81
2023/10/19 05:34:48;;;;;;;2.30;1.92;;;;;;;10.57;71.12;99081.06;4448636;32;32804;-81
2023/10/19 05:37:17;;;;;;;4.00;3.53;;;;;;;10.35;72.02;99084.00;4452383;32;32435;-81
2023/10/19 05:39:44;;;;;;;2.60;2.30;;;;;;;10.40;71.49;99080.22;4460389;32;34868;-80
2023/10/19 05:42:12;;;;;;;2.05;1.95;;;;;;;10.25;72.13;99081.00;4471506;32;34847;-81
2023/10/19 05:44:40;;;;;;;5.87;1.87;;;;;;;10.49;71.51;99076.19;4448815;32;34765;-81
2023/10/19 05:47:07;;;;;;;3.17;2.90;;;;;;;10.36;72.06;99075.19;4472501;32;33888;-81
2023/10/19 05:49:35;;;;;;;3.80;3.50;;;;;;;10.31;72.34;99070.16;4461359;32;33437;-81
2023/10/19 05:52:03;;;;;;;4.37;3.87;;;;;;;10.60;71.48;99070.34;4453879;32;32964;-80
2023/10/19 05:54:31;;;;;;;3.28;3.00;;;;;;;10.52;71.34;99061.03;4474002;32;33591;-80
2023/10/19 05:56:58;;;;;;;2.75;2.33;;;;;;;10.18;72.37;99069.06;4472606;32;33521;-80
2023/10/19 05:59:29;;;;;;;6.25;4.05;;;;;;;10.55;71.39;99078.53;4471174;32;33306;-80
2023/10/19 06:01:56;;;;;;;3.83;3.53;;;;;;;10.25;72.63;99083.66;4473654;32;32963;-80
2023/10/19 06:04:24;;;;;;;4.22;2.20;;;;;;;10.94;70.19;99066.66;4472028;32;34007;-79
2023/10/19 06:06:52;;;;;;;4.12;3.17;;;;;;;10.35;71.98;99073.47;4473880;32;34791;-80
2023/10/19 06:09:20;;;;;;;3.22;2.40;;;;;;;10.33;72.25;99085.91;4459943;32;32746;-80
2023/10/19 06:11:53;;;;;;;3.07;2.80;;;;;;;10.58;71.20;99080.13;4468573;32;34047;-83
2023/10/19 06:14:21;;;;;;;3.55;2.10;;;;;;;10.92;70.19;99064.13;4461166;32;33378;-81
2023/10/19 06:16:49;;;;;;;5.28;3.25;;;;;;;10.59;72.14;99071.28;4474264;32;33653;-80
2023/10/19 06:19:17;;;;;;;2.08;1.87;;;;;;;10.70;70.86;99058.34;4458301;32;32859;-80
2023/10/19 06:21:44;;;;;;;2.40;2.25;;;;;;;10.36;72.25;99065.47;4472316;31;32843;-79
2023/10/19 06:24:14;;;;;;;1.65;1.55;;;;;;;10.26;73.50;99074.84;4471494;32;34147;-80
2023/10/19 06:26:43;;;;;;;2.12;2.03;;;;;;;10.31;72.85;99056.97;4459239;32;33347;-79
2023/10/19 06:29:10;;;;;;;2.62;1.92;;;;;;;10.25;73.23;99042.31;4459510;32;31879;-81
2023/10/19 06:31:38;;;;;;;2.70;2.50;;;;;;;10.71;71.83;99050.31;4446906;32;31347;-80
2023/10/19 06:34:06;;;;;;;4.55;4.18;;;;;;;10.67;71.42;99063.78;4464078;32;33206;-80
2023/10/19 06:36:34;;;;;;;7.20;5.45;;;;;;;10.37;72.69;99048.69;4460923;32;32656;-80
2023/10/19 06:39:05;;;;;;;2.58;2.30;;;;;;;10.62;71.61;99039.41;4447352;32;35820;-79
2023/10/19 06:41:34;;;;;;;3.03;2.33;;;;;;;10.25;73.86;99052.88;4472453;32;35996;-80
2023/10/19 06:44:03;;;;;;;1.80;1.73;;;;;;;10.86;71.13;99045.94;4459390;32;32742;-80
2023/10/19 06:46:31;;;;;;;3.45;2.95;;;;;;;11.29;69.24;99032.91;4471567;32;33028;-80
2023/10/19 06:49:00;;;;;;;2.45;2.12;;;;;;;10.88;70.16;99027.41;4461499;32;32908;-79
2023/10/19 06:51:29;;;;;;;4.35;4.03;;;;;;;10.57;72.27;99042.31;4463824;32;33341;-81
2023/10/19 06:53:57;;;;;;;3.22;2.85;;;;;;;10.82;71.59;99047.06;4463567;32;33418;-80
2023/10/19 06:56:26;;;;;;;4.53;4.05;;;;;;;11.14;70.60;99031.16;4459208;32;34049;-80
2023/10/19 06:58:54;;;;;;;2.15;1.95;;;;;;;11.01;71.45;99037.19;4460513;32;33431;-80
2023/10/19 07:01:26;;;;;;;5.97;2.42;;;;;;;11.08;70.35;99027.09;4460821;32;33359;-80
2023/10/19 07:03:56;;;;;;;2.15;2.05;;;;;;;10.79;71.16;99031.41;4462268;32;33284;-80
2023/10/19 07:06:24;;;;;;;2.67;2.17;;;;;;;10.86;71.47;99038.03;4474714;32;32860;-80
2023/10/19 07:08:52;;;;;;;4.37;2.45;;;;;;;10.63;72.31;99027.91;4459751;32;32034;-80
2023/10/19 07:11:19;;;;;;;2.70;2.50;;;;;;;10.67;71.45;99038.22;4462448;32;33418;-80
2023/10/19 07:13:47;;;;;;;2.55;2.37;;;;;;;10.69;71.48;99035.50;4454529;32;33140;-80
2023/10/19 07:16:15;;;;;;;4.85;2.58;;;;;;;10.66;71.88;99015.41;4461840;32;32532;-80
2023/10/19 07:18:43;;;;;;;2.58;1.87;;;;;;;10.98;71.23;99010.94;4448278;32;32615;-80
2023/10/19 07:21:11;;;;;;;3.03;2.62;;;;;;;10.94;71.09;99025.25;4460512;32;33937;-80
2023/10/19 07:23:40;;;;;;;2.87;2.10;;;;;;;11.14;70.51;99015.31;4448119;32;33848;-79
2023/10/19 07:26:08;;;;;;;4.18;2.80;;;;;;;10.68;73.46;99007.38;4464919;32;34068;-80
2023/10/19 07:28:36;;;;;;;1.95;1.73;;;;;;;10.84;72.60;99021.44;4461278;31;33102;-80
2023/10/19 07:31:15;;;;;;;3.80;3.45;;;;;;;10.88;72.12;99020.31;4463700;32;33583;-80
2023/10/19 07:33:45;;;;;;;1.20;1.20;;;;;;;11.03;71.00;99008.88;4464349;32;33790;-80
2023/10/19 07:36:14;;;;;;;2.87;2.42;;;;;;;10.75;72.71;99000.84;4464223;32;34510;-80
2023/10/19 07:38:42;;;;;;;4.45;3.22;;;;;;;11.06;71.26;99005.19;4464001;32;32779;-80
2023/10/19 07:41:10;;;;;;;5.78;3.10;;;;;;;11.37;70.09;98969.03;4463587;32;32915;-80
2023/10/19 07:43:37;;;;;;;5.35;3.33;;;;;;;10.76;72.46;98997.25;4477041;32;34948;-80
2023/10/19 07:46:06;;;;;;;4.45;3.15;;;;;;;11.15;71.17;98980.00;4474997;32;32962;-79
2023/10/19 07:48:36;;;;;;;2.53;2.33;;;;;;;10.88;72.36;99004.47;4474156;32;33837;-80
2023/10/19 07:51:04;;;;;;;2.92;2.00;;;;;;;11.45;70.31;98965.00;4476039;32;34011;-80
2023/10/19 07:53:32;;;;;;;3.65;2.78;;;;;;;10.71;72.91;98978.19;4469294;32;34539;-80
2023/10/19 07:56:00;;;;;;;2.37;2.20;;;;;;;11.06;71.31;98967.34;4463657;32;32478;-80
2023/10/19 07:58:27;;;;;;;12.18;2.20;;;;;;;10.89;72.65;98969.19;4475079;32;33762;-80
2023/10/19 08:00:56;;;;;;;2.00;1.90;;;;;;;11.09;71.58;98973.31;4464611;32;33011;-80
2023/10/19 08:03:25;;;;;;;1.95;1.77;;;;;;;11.20;71.33;98965.63;4461049;32;34737;-80
2023/10/19 08:05:53;;;;;;;4.78;3.25;;;;;;;10.91;72.37;98962.03;4448909;32;33586;-80
2023/10/19 08:08:20;;;;;;;10.43;2.20;;;;;;;10.98;71.71;98965.19;4448656;32;34441;-80
2023/10/19 08:10:48;;;;;;;3.17;2.87;;;;;;;11.09;71.32;98953.97;4461935;32;36791;-80
2023/10/19 08:13:16;;;;;;;5.53;3.00;;;;;;;10.92;72.66;98963.75;4474346;32;34750;-80
2023/10/19 08:15:43;;;;;;;2.03;1.92;;;;;;;11.05;73.10;98963.00;4464029;32;33545;-80
2023/10/19 08:18:12;;;;;;;2.20;2.05;;;;;;;11.29;71.92;98961.53;4473091;32;33936;-80
2023/10/19 08:20:40;;;;;;;2.25;1.17;;;;;;;11.37;70.89;98964.59;4463766;32;34681;-80
2023/10/19 08:23:07;;;;;;;6.57;2.37;;;;;;;11.41;71.36;98960.81;4475124;32;32933;-81
2023/10/19 08:25:36;;;;;;;1.45;1.35;;;;;;;11.54;70.99;98955.66;4477489;32;34099;-80
2023/10/19 08:28:07;;;;;;;1.80;1.70;;;;;;;11.40;70.97;98972.34;4462019;32;34221;-80
2023/10/19 08:30:37;;;;;;;1.87;1.75;;;;;;;11.33;71.27;98956.94;4475088;32;32493;-80
2023/10/19 08:33:06;;;;;;;1.85;1.02;;;;;;;11.52;71.03;98941.66;4473447;32;34097;-81
2023/10/19 08:35:35;;;;;;;2.47;1.45;;;;;;;11.46;71.11;98931.47;4462886;32;31521;-81
2023/10/19 08:38:11;;;;;;;1.60;1.50;;;;;;;11.63;70.71;98943.63;4460337;32;34225;-80
2023/10/19 08:40:39;;;;;;;3.05;2.28;;;;;;;11.48;71.16;98942.78;4478585;32;34144;-81
2023/10/19 08:43:13;;;;;;;2.72;2.53;;;;;;;12.03;68.73;98927.00;4462763;32;32907;-81
2023/10/19 08:45:41;;;;;;;1.35;0.98;;;;;;;12.19;68.84;98926.03;4447284;32;33345;-81
2023/10/19 08:48:09;;;;;;;3.62;2.33;;;;;;;12.10;69.17;98926.63;4461632;32;33589;-81
2023/10/19 08:50:38;;;;;;;2.92;2.65;;;;;;;11.60;70.53;98907.66;4463461;32;34673;-81
2023/10/19 08:53:14;;;;;;;1.95;1.73;;;;;;;12.07;69.23;98905.66;4464516;32;32812;-81
2023/10/19 08:55:43;;;;;;;1.10;1.10;;;;;;;11.72;70.54;98906.88;4459354;32;33363;-82
2023/10/19 08:58:17;;;;;;;2.05;1.90;;;;;;;11.83;71.24;98906.28;4462365;32;32992;-81
2023/10/19 09:00:56;;;;;;;3.75;2.17;;;;;;;12.53;69.58;98899.09;4463373;32;32830;-81
2023/10/19 09:03:25;;;;;;;1.95;1.87;;;;;;;12.37;68.77;98902.81;4461572;32;33954;-80
2023/10/19 09:05:56;;;;;;;4.40;3.30;;;;;;;12.00;70.01;98910.47;4457852;32;32560;-81
2023/10/19 09:08:24;;;;;;;2.12;1.85;;;;;;;12.49;68.87;98897.59;4473411;32;33949;-81
2023/10/19 09:10:53;;;;;;;4.30;2.37;;;;;;;12.83;67.20;98900.62;4477792;32;32635;-81
2023/10/19 09:13:22;;;;;;;2.95;2.72;;;;;;;12.55;67.62;98898.97;4464093;32;33704;-81
2023/10/19 09:15:53;;;;;;;7.68;3.37;;;;;;;12.31;68.83;98896.13;4462127;32;33520;-81
2023/10/19 09:18:23;;;;;;;6.55;3.45;;;;;;;12.72;68.11;98897.84;4476291;32;34168;-81
2023/10/19 09:20:52;;;;;;;4.35;2.58;;;;;;;12.73;69.21;98896.91;4474427;32;33190;-81
2023/10/19 09:23:22;;;;;;;3.37;3.15;;;;;;;12.78;68.12;98887.69;4460936;32;35752;-81
2023/10/19 09:25:52;;;;;;;5.22;1.92;;;;;;;12.81;67.64;98900.72;4461062;32;32412;-81
2023/10/19 09:28:24;;;;;;;4.80;3.12;;;;;;;12.67;68.02;98899.94;4474926;32;32641;-81
2023/10/19 09:30:52;;;;;;;6.57;2.08;;;;;;;13.01;67.74;98883.50;4463751;32;32984;-81
2023/10/19 09:33:21;;;;;;;4.40;3.87;;;;;;;13.25;66.68;98898.69;4465260;32;33029;-81
2023/10/19 09:35:56;;;;;;;5.30;3.35;;;;;;;13.45;66.18;98886.72;4474367;32;33375;-81
2023/10/19 09:38:26;;;;;;;2.12;2.03;;;;;;;13.71;65.36;98882.19;4462733;32;33724;-81
2023/10/19 09:40:55;;;;;;;1.70;1.60;;;;;;;13.49;65.71;98882.88;4461380;32;34152;-81
2023/10/19 09:43:41;;;;;;;3.08;1.85;;;;;;;13.64;65.15;98878.31;4460877;32;34250;-81
2023/10/19 09:46:11;;;;;;;5.75;3.47;;;;;;;13.40;66.16;98873.78;4452473;32;33518;-86
2023/10/19 09:48:41;;;;;;;3.08;2.60;;;;;;;13.60;65.12;98884.78;4451923;32;32810;-86
2023/10/19 09:51:10;;;;;;;3.80;2.00;;;;;;;13.44;66.04;98858.50;4475143;31;34559;-86
2023/10/19 09:53:42;;;;;;;3.65;2.92;;;;;;;13.79;65.06;98866.59;4470009;32;34103;-86
2023/10/19 09:56:27;;;;;;;1.60;1.50;;;;;;;13.70;64.88;98861.94;4459716;32;34059;-86
2023/10/19 09:58:58;;;;;;;4.47;3.37;;;;;;;13.74;64.79;98844.84;4471741;32;33778;-85
2023/10/19 10:01:27;;;;;;;3.47;1.65;;;;;;;13.69;65.58;98837.22;4447396;32;34670;-85
2023/10/19 10:03:57;;;;;;;4.30;1.52;;;;;;;13.80;65.39;98836.44;4459916;32;34628;-86
2023/10/19 10:06:51;;;;;;;3.70;3.45;;;;;;;13.78;65.57;98825.94;4459908;32;33600;-86
2023/10/19 10:09:23;;;;;;;1.23;1.20;;;;;;;13.78;65.56;98814.50;4477631;32;34157;-86
2023/10/19 10:11:53;;;;;;;12.30;2.08;;;;;;;14.03;65.00;98811.72;4449635;32;33555;-86
2023/10/19 10:14:29;;;;;;;4.70;2.70;;;;;;;14.12;63.78;98804.06;4469856;31;33070;-85
2023/10/19 10:17:01;;;;;;;5.45;2.58;;;;;;;13.89;64.73;98806.59;4447784;32;33374;-85
2023/10/19 10:19:32;;;;;;;4.65;3.55;;;;;;;14.27;63.61;98802.91;4458817;32;34236;-85
2023/10/19 10:22:11;;;;;;;1.75;1.65;;;;;;;14.36;63.36;98794.25;4460957;32;34098;-86
2023/10/19 10:24:44;;;;;;;2.20;2.08;;;;;;;14.31;63.57;98781.31;4460445;32;33353;-86
2023/10/19 10:27:14;;;;;;;1.47;1.37;;;;;;;13.89;65.08;98784.50;4460425;32;32796;-85
2023/10/19 10:29:55;;;;;;;2.35;2.15;;;;;;;14.40;64.44;98778.94;4470566;32;33070;-85
2023/10/19 10:32:47;;;;;;;1.60;1.50;;;;;;;14.23;63.77;98782.84;4450782;32;33146;-85
2023/10/19 10:35:42;;;;;;;3.65;2.22;;;;;;;14.20;63.98;98781.28;4459312;32;33014;-86
2023/10/19 10:38:13;;;;;;;1.37;1.30;;;;;;;14.63;62.42;98778.06;4446200;32;32381;-86
2023/10/19 10:40:51;;;;;;;2.50;2.28;;;;;;;14.51;63.08;98763.91;4450419;32;34195;-86
2023/10/19 10:43:19;;;;;;;6.10;3.85;;;;;;;14.07;64.14;98777.84;4452644;32;33390;-85
2023/10/19 10:45:47;;;;;;;1.40;1.35;;;;;;;14.35;63.75;98771.31;4458655;32;34164;-86
2023/10/19 10:48:19;;;;;;;8.45;3.00;;;;;;;14.21;64.41;98763.56;4458255;32;33137;-85
2023/10/19 10:50:50;;;;;;;5.62;2.62;;;;;;;14.31;64.20;98754.78;4451159;32;33344;-85
2023/10/19 10:53:24;;;;;;;3.40;3.00;;;;;;;14.36;64.13;98735.84;4450958;32;32863;-86
2023/10/19 10:55:53;;;;;;;2.25;1.98;;;;;;;14.47;63.84;98742.97;4460527;32;32865;-86
2023/10/19 10:58:21;;;;;;;1.52;1.40;;;;;;;14.72;62.54;98747.31;4462261;32;33988;-87
2023/10/19 11:00:51;;;;;;;3.33;3.12;;;;;;;14.45;63.76;98740.44;4459307;32;34654;-85
2023/10/19 11:03:21;;;;;;;10.35;2.83;;;;;;;14.78;62.96;98736.19;4460309;32;33316;-85
2023/10/19 11:05:49;;;;;;;6.57;3.55;;;;;;;14.49;63.63;98733.13;4456745;32;36212;-85
2023/10/19 11:08:20;;;;;;;4.60;4.12;;;;;;;14.61;64.17;98724.19;4460222;32;34723;-85
2023/10/19 11:10:48;;;;;;;4.12;2.03;;;;;;;15.26;62.90;98722.66;4458948;32;33414;-85
2023/10/19 11:13:18;;;;;;;4.07;3.75;;;;;;;15.50;61.80;98725.97;4473149;32;34628;-86
2023/10/19 11:15:54;;;;;;;3.42;2.28;;;;;;;15.69;61.35;98719.19;4460527;32;34359;-86
2023/10/19 11:18:40;;;;;;;2.90;2.67;;;;;;;15.69;60.82;98714.72;4460536;32;31689;-85
2023/10/19 11:21:14;;;;;;;3.05;2.75;;;;;;;15.65;61.43;98709.78;4472668;32;33294;-86
2023/10/19 11:23:44;;;;;;;4.90;3.75;;;;;;;16.09;59.78;98714.94;4446905;32;34200;-85
2023/10/19 11:26:17;;;;;;;3.28;2.58;;;;;;;16.38;59.19;98699.16;4457920;32;33609;-86
2023/10/19 11:28:51;;;;;;;3.37;2.12;;;;;;;16.73;57.73;98702.47;4445807;32;32987;-85
2023/10/19 11:31:23;;;;;;;4.22;2.65;;;;;;;16.18;59.47;98707.97;4471006;32;33365;-85
2023/10/19 11:33:53;;;;;;;1.80;1.70;;;;;;;15.75;60.51;98694.75;4457095;32;33188;-87
2023/10/19 11:36:22;;;;;;;2.75;2.58;;;;;;;15.85;61.20;98695.66;4457966;32;33381;-86
2023/10/19 11:38:53;;;;;;;2.72;2.17;;;;;;;16.47;59.50;98686.00;4446210;32;32934;-86
2023/10/19 11:41:23;;;;;;;2.95;2.50;;;;;;;16.36;59.70;98684.28;4460554;32;33947;-86
2023/10/19 11:43:52;;;;;;;2.00;1.90;;;;;;;16.11;59.87;98686.34;4448259;32;33822;-86
2023/10/19 11:46:25;;;;;;;6.12;3.17;;;;;;;15.95;60.60;98679.78;4457739;32;104685;-87
2023/10/19 11:48:53;;;;;;;1.62;1.52;;;;;;;16.19;60.01;98676.84;4437150;32;33549;-87
2023/10/19 11:51:21;;;;;;;2.22;2.12;;;;;;;15.64;61.17;98679.66;4470530;31;33812;-86
2023/10/19 11:53:49;;;;;;;3.80;2.47;;;;;;;15.40;62.12;98676.31;4449739;32;33001;-84
2023/10/19 11:56:17;;;;;;;4.70;2.53;;;;;;;16.05;60.78;98678.91;4461253;32;34860;-83
2023/10/19 11:58:46;;;;;;;5.07;2.97;;;;;;;16.08;60.80;98683.94;4449244;32;32911;-83
2023/10/19 12:01:16;;;;;;;3.92;2.33;;;;;;;16.36;60.12;98677.13;4455426;32;34863;-84
2023/10/19 12:03:46;;;;;;;3.45;2.72;;;;;;;16.58;59.61;98662.81;4449891;32;33246;-84
2023/10/19 12:06:18;;;;;;;2.22;2.03;;;;;;;16.36;59.77;98654.97;4462331;32;33802;-83
2023/10/19 12:08:48;;;;;;;1.70;1.48;;;;;;;15.58;62.77;98666.84;4448553;32;34000;-83
2023/10/19 12:11:16;;;;;;;3.28;2.87;;;;;;;15.91;61.46;98657.91;4459889;32;34144;-83
2023/10/19 12:13:45;;;;;;;4.60;4.18;;;;;;;15.88;61.72;98643.03;4477629;32;34843;-84